Time;durP1;ratioP1;P1;durP2;ratioP2;P2;SDS_P1;SDS_P2;PMS_P1;PMS_P2;Temp;Humidity;BMP_temperature;BMP_pressure;BME280_temperature;BME280_humidity;BME280_pressure;Samples;Min_cycle;Max_cycle;Signal;HPM_P1;HPM_P2
2023/06/10 00:00:21;;;;;;;8.60;5.90;;;24.50;75.80;;;;;;6176814;23;20012;-94
2023/06/10 00:02:46;;;;;;;7.25;5.28;;;24.60;75.90;;;;;;6176620;23;20010;-94
2023/06/10 00:05:13;;;;;;;6.93;5.30;;;24.50;76.00;;;;;;6153017;23;20096;-95
2023/06/10 00:07:39;;;;;;;8.07;5.30;;;24.50;75.90;;;;;;6180289;23;20035;-93
2023/06/10 00:10:08;;;;;;;9.75;5.20;;;24.50;75.60;;;;;;6203909;23;20028;-95
2023/06/10 00:12:36;;;;;;;9.55;5.20;;;24.50;75.50;;;;;;6204362;23;20088;-94
2023/06/10 00:15:06;;;;;;;7.32;5.35;;;24.50;75.40;;;;;;6202344;23;20003;-93
2023/06/10 00:17:32;;;;;;;8.13;5.78;;;24.50;75.30;;;;;;6227622;23;19996;-93
2023/06/10 00:20:04;;;;;;;7.30;5.05;;;24.40;75.30;;;;;;6151718;23;20011;-92
2023/06/10 00:22:32;;;;;;;6.80;5.03;;;24.50;75.50;;;;;;6175219;23;20005;-92
2023/06/10 00:24:57;;;;;;;8.98;5.38;;;24.40;75.30;;;;;;6199375;23;20032;-91
2023/06/10 00:27:24;;;;;;;7.28;5.10;;;24.40;75.20;;;;;;6174285;23;20420;-91
2023/06/10 00:29:50;;;;;;;10.30;5.82;;;24.40;75.40;;;;;;6200050;23;20064;-93
2023/06/10 00:32:16;;;;;;;9.23;5.20;;;24.40;75.40;;;;;;6201314;23;19993;-93
2023/06/10 00:34:51;;;;;;;7.20;5.18;;;24.30;75.20;;;;;;6225911;23;20038;-93
2023/06/10 00:37:23;;;;;;;10.15;5.88;;;24.30;75.10;;;;;;6201195;23;19996;-93
2023/06/10 00:39:54;;;;;;;8.95;5.60;;;24.30;74.90;;;;;;6219017;23;20016;-94
2023/06/10 00:42:24;;;;;;;7.72;5.47;;;24.30;74.80;;;;;;6164944;23;19993;-92
2023/06/10 00:44:56;;;;;;;10.00;5.20;;;24.20;74.80;;;;;;6207797;23;20009;-92
2023/06/10 00:47:26;;;;;;;8.27;5.32;;;24.20;74.90;;;;;;6187693;23;20328;-92
2023/06/10 00:49:55;;;;;;;8.52;5.25;;;24.20;74.90;;;;;;6137779;23;20096;-93
2023/06/10 00:52:30;;;;;;;7.13;5.13;;;24.10;74.60;;;;;;6187075;23;20001;-91
2023/06/10 00:54:56;;;;;;;7.80;5.30;;;24.10;74.50;;;;;;6163043;23;20408;-93
2023/06/10 00:57:29;;;;;;;8.48;5.50;;;24.10;74.50;;;;;;6163127;23;20005;-92
2023/06/10 00:59:57;;;;;;;8.02;5.22;;;24.10;74.50;;;;;;6162767;23;20088;-94
2023/06/10 01:02:30;;;;;;;8.88;5.05;;;24.00;74.50;;;;;;6166578;23;20009;-94
2023/06/10 01:05:01;;;;;;;8.05;5.07;;;24.00;74.50;;;;;;6163152;23;20017;-94
2023/06/10 01:07:38;;;;;;;8.25;4.72;;;24.00;74.30;;;;;;6139121;23;20009;-94
2023/06/10 01:10:08;;;;;;;9.90;5.10;;;24.00;74.00;;;;;;6187724;23;20013;-94
2023/06/10 01:12:59;;;;;;;7.72;5.15;;;23.90;73.90;;;;;;6187070;23;20024;-93
2023/06/10 01:15:25;;;;;;;10.13;5.18;;;23.90;74.10;;;;;;6186896;23;20001;-94
2023/06/10 01:18:09;;;;;;;7.85;5.10;;;23.90;74.10;;;;;;6187307;23;20001;-92
2023/06/10 01:20:39;;;;;;;8.02;4.72;;;23.80;73.60;;;;;;6186862;23;20012;-92
2023/06/10 01:23:06;;;;;;;10.38;5.55;;;23.80;73.80;;;;;;6187778;23;20100;-92
2023/06/10 01:25:36;;;;;;;6.65;5.10;;;23.80;73.40;;;;;;6162373;23;20035;-92
2023/06/10 01:28:23;;;;;;;6.80;4.95;;;23.80;73.30;;;;;;6162896;23;20001;-92
2023/06/10 01:31:15;;;;;;;9.18;5.45;;;23.70;73.40;;;;;;6187141;23;19997;-92
2023/06/10 01:33:47;;;;;;;7.30;5.30;;;23.70;73.30;;;;;;6187662;23;20083;-92
2023/06/10 01:36:16;;;;;;;7.38;5.18;;;23.70;73.60;;;;;;6186891;23;20066;-92
2023/06/10 01:38:47;;;;;;;7.35;5.38;;;23.60;73.60;;;;;;6190497;23;20088;-92
2023/06/10 01:41:15;;;;;;;7.18;4.90;;;23.60;73.30;;;;;;6167215;23;20375;-92
2023/06/10 01:43:49;;;;;;;7.95;5.28;;;23.60;73.30;;;;;;6190604;23;20012;-92
2023/06/10 01:46:15;;;;;;;8.30;5.22;;;23.50;73.10;;;;;;6194277;23;20035;-92
2023/06/10 01:48:44;;;;;;;8.20;5.25;;;23.50;73.20;;;;;;6205984;23;20001;-93
2023/06/10 01:51:10;;;;;;;9.55;5.43;;;23.50;73.40;;;;;;6204588;23;20062;-94
2023/06/10 01:53:36;;;;;;;6.30;4.90;;;23.50;73.70;;;;;;6191327;23;20099;-93
2023/06/10 01:56:01;;;;;;;9.10;4.75;;;23.40;73.20;;;;;;6167084;23;20328;-93
2023/06/10 01:58:27;;;;;;;12.80;5.38;;;23.40;73.20;;;;;;6191634;23;20005;-93
2023/06/10 02:00:53;;;;;;;8.93;5.00;;;23.40;72.80;;;;;;6166724;23;20011;-93
2023/06/10 02:03:18;;;;;;;8.80;4.97;;;23.30;72.90;;;;;;6191903;23;20004;-94
2023/06/10 02:05:47;;;;;;;7.60;5.07;;;23.30;73.10;;;;;;6166533;23;20005;-93
2023/06/10 02:08:13;;;;;;;8.52;5.65;;;23.30;73.80;;;;;;6167413;23;20012;-93
2023/06/10 02:10:39;;;;;;;9.65;5.15;;;23.20;73.10;;;;;;6191666;23;20088;-94
2023/06/10 02:13:05;;;;;;;7.47;4.50;;;23.20;73.10;;;;;;6142343;23;20068;-93
2023/06/10 02:15:30;;;;;;;7.03;4.70;;;23.20;73.30;;;;;;6166692;23;20001;-93
2023/06/10 02:17:57;;;;;;;8.68;5.15;;;23.20;73.40;;;;;;6166614;23;20095;-93
2023/06/10 02:20:23;;;;;;;7.20;4.93;;;23.10;73.40;;;;;;6167454;23;20012;-94
2023/06/10 02:22:49;;;;;;;9.23;5.07;;;23.10;73.30;;;;;;6192177;23;20005;-93
2023/06/10 02:25:14;;;;;;;9.77;5.15;;;23.10;73.30;;;;;;6141989;23;20113;-91
2023/06/10 02:27:40;;;;;;;10.38;5.38;;;23.10;73.20;;;;;;6191218;23;20421;-92
2023/06/10 02:30:09;;;;;;;9.48;5.00;;;23.00;73.40;;;;;;6141563;23;20008;-91
2023/06/10 02:32:35;;;;;;;7.18;5.22;;;23.00;73.40;;;;;;6166917;23;20009;-91
2023/06/10 02:35:01;;;;;;;10.18;5.88;;;23.00;73.50;;;;;;6191892;23;20377;-91
2023/06/10 02:37:27;;;;;;;7.80;4.85;;;23.00;73.80;;;;;;6191181;23;20028;-91
2023/06/10 02:39:52;;;;;;;8.65;4.85;;;22.90;73.30;;;;;;6130269;23;20064;-90
2023/06/10 02:42:19;;;;;;;8.63;4.70;;;22.90;73.30;;;;;;6191892;23;20005;-94
2023/06/10 02:44:44;;;;;;;8.18;5.47;;;22.90;73.70;;;;;;6146496;23;20019;-94
2023/06/10 02:47:10;;;;;;;9.80;5.03;;;22.80;73.80;;;;;;6145480;23;20320;-94
2023/06/10 02:49:36;;;;;;;7.35;4.97;;;22.80;73.90;;;;;;6145973;23;20013;-93
2023/06/10 02:52:02;;;;;;;10.20;5.63;;;22.80;73.90;;;;;;6170371;23;20358;-94
2023/06/10 02:54:28;;;;;;;8.38;5.05;;;22.80;74.00;;;;;;6119956;23;20023;-95
2023/06/10 02:56:55;;;;;;;8.50;5.22;;;22.80;74.10;;;;;;6168627;23;20016;-94
2023/06/10 02:59:22;;;;;;;10.07;4.82;;;22.70;74.00;;;;;;6183025;23;20084;-92
2023/06/10 03:01:47;;;;;;;8.30;5.18;;;22.70;74.30;;;;;;6162170;23;20110;-93
2023/06/10 03:04:14;;;;;;;10.50;5.13;;;22.70;74.40;;;;;;6137276;23;20425;-93
2023/06/10 03:06:45;;;;;;;9.27;5.20;;;22.70;74.60;;;;;;6136840;23;20009;-94
2023/06/10 03:09:11;;;;;;;7.53;4.63;;;22.60;74.80;;;;;;6161272;23;20008;-93
2023/06/10 03:11:36;;;;;;;10.77;5.35;;;22.60;74.70;;;;;;6136780;23;20013;-94
2023/06/10 03:14:02;;;;;;;9.60;5.68;;;22.60;74.80;;;;;;6137088;23;20008;-93
2023/06/10 03:16:30;;;;;;;9.40;5.03;;;22.60;74.80;;;;;;6136179;23;20029;-91
2023/06/10 03:18:56;;;;;;;8.45;5.25;;;22.60;75.20;;;;;;6136493;23;20396;-91
2023/06/10 03:21:21;;;;;;;7.75;5.32;;;22.50;75.30;;;;;;6161057;23;20001;-89
2023/06/10 03:23:50;;;;;;;9.57;5.53;;;22.50;75.50;;;;;;6136123;23;20009;-92
2023/06/10 03:26:16;;;;;;;8.60;5.13;;;22.50;75.80;;;;;;6136706;23;20040;-91
2023/06/10 03:28:45;;;;;;;11.38;5.20;;;22.50;75.90;;;;;;6136855;23;20013;-92
2023/06/10 03:31:11;;;;;;;8.40;5.38;;;22.40;75.90;;;;;;6136938;23;20407;-93
2023/06/10 03:33:37;;;;;;;10.35;5.10;;;22.40;75.90;;;;;;6136343;23;20037;-93
2023/06/10 03:36:03;;;;;;;7.60;5.32;;;22.40;75.90;;;;;;6136289;23;20084;-93
2023/06/10 03:38:29;;;;;;;10.25;5.28;;;22.30;76.00;;;;;;6161941;23;20005;-93
2023/06/10 03:40:54;;;;;;;7.93;5.10;;;22.30;75.90;;;;;;6135806;23;20452;-93
2023/06/10 03:43:21;;;;;;;10.02;5.43;;;22.30;75.90;;;;;;6136408;23;20005;-93
2023/06/10 03:45:48;;;;;;;7.82;4.70;;;22.30;76.00;;;;;;6136599;23;20016;-93
2023/06/10 03:48:13;;;;;;;7.70;5.32;;;22.30;76.40;;;;;;6136395;23;20040;-93
2023/06/10 03:50:39;;;;;;;10.25;5.43;;;22.20;76.40;;;;;;6112560;23;20009;-93
2023/06/10 03:53:05;;;;;;;7.97;4.80;;;22.20;76.60;;;;;;6136548;23;20002;-93
2023/06/10 03:55:31;;;;;;;6.97;4.72;;;22.20;76.70;;;;;;6136401;23;20376;-93
2023/06/10 03:57:57;;;;;;;10.85;5.10;;;22.20;76.60;;;;;;6136560;23;20005;-93
2023/06/10 04:00:22;;;;;;;8.98;5.47;;;22.20;76.70;;;;;;6160761;23;20016;-94
2023/06/10 04:02:49;;;;;;;10.18;5.07;;;22.10;77.00;;;;;;6136346;23;20340;-93
2023/06/10 04:05:22;;;;;;;8.32;5.25;;;22.10;76.90;;;;;;6137721;23;20005;-92
2023/06/10 04:07:50;;;;;;;10.95;5.70;;;22.10;76.90;;;;;;6136819;23;20051;-93
2023/06/10 04:10:19;;;;;;;8.60;5.38;;;22.10;77.30;;;;;;6138005;23;20036;-93
2023/06/10 04:12:47;;;;;;;8.95;4.90;;;22.00;77.20;;;;;;6161815;23;20004;-94
2023/06/10 04:15:13;;;;;;;9.73;5.35;;;22.00;77.40;;;;;;6162014;23;20333;-93
2023/06/10 04:17:39;;;;;;;11.05;5.20;;;22.00;77.50;;;;;;6139251;23;20144;-93
2023/06/10 04:20:07;;;;;;;8.95;5.15;;;22.00;77.60;;;;;;6138990;23;20015;-93
2023/06/10 04:22:33;;;;;;;7.40;4.55;;;22.00;77.70;;;;;;6164093;23;20005;-92
2023/06/10 04:25:05;;;;;;;13.25;5.18;;;21.90;77.70;;;;;;6137950;23;20020;-92
2023/06/10 04:27:30;;;;;;;10.00;5.53;;;21.90;77.60;;;;;;6162059;23;20055;-92
2023/06/10 04:29:56;;;;;;;9.52;5.78;;;21.90;77.60;;;;;;6137674;23;20013;-92
2023/06/10 04:32:22;;;;;;;9.13;5.13;;;21.90;77.90;;;;;;6138003;23;20012;-92
2023/06/10 04:34:50;;;;;;;9.40;5.53;;;21.90;78.20;;;;;;6137598;23;20005;-91
2023/06/10 04:37:16;;;;;;;9.52;5.32;;;21.90;78.20;;;;;;6137799;23;20009;-93
2023/06/10 04:39:42;;;;;;;11.20;5.32;;;21.90;78.40;;;;;;6145886;23;20042;-93
2023/06/10 04:42:11;;;;;;;8.68;5.35;;;21.90;78.30;;;;;;6168106;23;20324;-93
2023/06/10 04:44:37;;;;;;;10.00;6.07;;;21.80;78.40;;;;;;6168840;23;20013;-91
2023/06/10 04:47:09;;;;;;;11.35;5.45;;;21.80;78.60;;;;;;6143598;23;20389;-91
2023/06/10 04:49:35;;;;;;;8.30;5.22;;;21.80;78.50;;;;;;6192862;23;20005;-92
2023/06/10 04:52:04;;;;;;;9.60;5.20;;;21.80;78.80;;;;;;6192586;23;20001;-92
2023/06/10 04:54:33;;;;;;;8.52;4.68;;;21.80;79.00;;;;;;6195974;23;20005;-92
2023/06/10 04:57:00;;;;;;;7.80;4.93;;;21.70;79.30;;;;;;6191780;23;20005;-92
2023/06/10 04:59:29;;;;;;;11.52;5.38;;;21.80;78.60;;;;;;6185955;23;20009;-91
2023/06/10 05:02:00;;;;;;;6.78;4.95;;;21.70;78.90;;;;;;6173404;23;20008;-91
2023/06/10 05:04:32;;;;;;;10.60;5.40;;;21.70;79.00;;;;;;6151655;23;20008;-91
2023/06/10 05:07:01;;;;;;;8.57;5.43;;;21.70;79.40;;;;;;6149470;23;20071;-92
2023/06/10 05:09:32;;;;;;;11.65;5.43;;;21.70;79.50;;;;;;6171719;23;20095;-93
2023/06/10 05:11:58;;;;;;;10.07;5.90;;;21.70;79.40;;;;;;6145005;23;20435;-94
2023/06/10 05:14:24;;;;;;;12.02;6.03;;;21.70;79.50;;;;;;6167278;23;20012;-93
2023/06/10 05:16:50;;;;;;;10.15;5.20;;;21.70;79.60;;;;;;6192240;23;20007;-93
2023/06/10 05:19:16;;;;;;;10.20;5.78;;;21.70;79.80;;;;;;6192485;23;20011;-92
2023/06/10 05:21:42;;;;;;;9.13;5.65;;;21.70;79.70;;;;;;6191324;23;20028;-92
2023/06/10 05:24:08;;;;;;;7.65;5.07;;;21.70;79.80;;;;;;6141937;23;20423;-92
2023/06/10 05:26:37;;;;;;;10.25;5.95;;;21.70;79.80;;;;;;6142126;23;20102;-91
2023/06/10 05:29:03;;;;;;;10.77;5.18;;;21.70;80.10;;;;;;6167907;23;20032;-93
2023/06/10 05:31:29;;;;;;;10.70;5.72;;;21.70;80.10;;;;;;6166728;23;20008;-92
2023/06/10 05:33:54;;;;;;;11.25;5.50;;;21.70;80.50;;;;;;6166673;23;20082;-93
2023/06/10 05:36:20;;;;;;;10.45;5.63;;;21.70;80.60;;;;;;6166964;23;20031;-92
2023/06/10 05:38:47;;;;;;;9.02;5.93;;;21.70;80.50;;;;;;6191633;23;20103;-93
2023/06/10 05:41:12;;;;;;;10.75;5.72;;;21.70;80.50;;;;;;6186208;23;20457;-92
2023/06/10 05:43:38;;;;;;;9.05;5.18;;;21.70;80.70;;;;;;6137331;23;20052;-93
2023/06/10 05:46:04;;;;;;;8.77;5.13;;;21.70;80.90;;;;;;6186891;23;20165;-91
2023/06/10 05:48:30;;;;;;;8.50;5.28;;;21.70;81.10;;;;;;6187446;23;20001;-92
2023/06/10 05:50:55;;;;;;;11.23;6.28;;;21.70;81.10;;;;;;6163235;23;20083;-93
2023/06/10 05:53:22;;;;;;;10.05;5.70;;;21.70;81.40;;;;;;6187233;23;20001;-94
2023/06/10 05:56:06;;;;;;;10.15;5.15;;;21.70;81.10;;;;;;6187220;23;20353;-94
2023/06/10 05:58:32;;;;;;;11.25;6.00;;;21.70;81.10;;;;;;6137343;23;20448;-93
2023/06/10 06:01:06;;;;;;;10.60;6.05;;;21.70;81.00;;;;;;6163061;23;20009;-92
2023/06/10 06:03:38;;;;;;;12.30;5.80;;;21.80;81.40;;;;;;6161367;23;20005;-91
2023/06/10 06:06:07;;;;;;;10.60;5.75;;;21.80;81.50;;;;;;6136663;23;20009;-92
2023/06/10 06:08:42;;;;;;;12.15;5.47;;;21.80;81.70;;;;;;6187137;23;20055;-93
2023/06/10 06:11:08;;;;;;;9.07;5.78;;;21.80;82.00;;;;;;6137117;23;20433;-91
2023/06/10 06:13:41;;;;;;;9.60;5.53;;;21.80;82.10;;;;;;6161885;23;20084;-92
2023/06/10 06:16:06;;;;;;;8.77;5.95;;;21.90;82.20;;;;;;6137149;23;20019;-92
2023/06/10 06:18:44;;;;;;;8.48;5.55;;;21.90;81.90;;;;;;6137939;23;20088;-94
2023/06/10 06:21:10;;;;;;;8.30;5.60;;;21.90;81.90;;;;;;6162676;23;20013;-93
2023/06/10 06:23:45;;;;;;;11.38;6.10;;;21.90;81.90;;;;;;6162526;23;20032;-93
2023/06/10 06:26:11;;;;;;;8.77;5.78;;;21.90;82.00;;;;;;6137184;23;20447;-93
2023/06/10 06:28:46;;;;;;;8.93;5.60;;;22.00;82.20;;;;;;6162392;23;20088;-94
2023/06/10 06:31:15;;;;;;;10.23;5.30;;;22.00;82.40;;;;;;6185999;23;20092;-94
2023/06/10 06:33:50;;;;;;;10.52;6.03;;;22.00;82.60;;;;;;6186176;23;20473;-93
2023/06/10 06:36:16;;;;;;;11.60;5.25;;;22.10;82.80;;;;;;6161862;23;20495;-93
2023/06/10 06:38:42;;;;;;;7.97;5.28;;;22.10;82.80;;;;;;6162519;23;20036;-92
2023/06/10 06:41:10;;;;;;;12.63;6.22;;;22.10;83.00;;;;;;6161673;23;20020;-92
2023/06/10 06:43:39;;;;;;;11.95;6.03;;;22.10;82.70;;;;;;6137599;23;20032;-92
2023/06/10 06:46:15;;;;;;;11.68;5.50;;;22.20;82.40;;;;;;6161511;23;20001;-92
2023/06/10 06:48:41;;;;;;;10.10;5.43;;;22.20;82.40;;;;;;6140019;23;20435;-92
2023/06/10 06:51:16;;;;;;;9.65;5.70;;;22.20;82.40;;;;;;6139200;23;20009;-92
2023/06/10 06:53:56;;;;;;;7.68;5.50;;;22.20;82.20;;;;;;6160239;23;20016;-92
2023/06/10 06:56:22;;;;;;;10.75;6.25;;;22.30;82.50;;;;;;6188097;23;20077;-91
2023/06/10 06:58:54;;;;;;;8.48;5.25;;;22.30;82.70;;;;;;6163871;23;19989;-92
2023/06/10 07:01:20;;;;;;;12.05;5.60;;;22.40;83.00;;;;;;6142073;23;20032;-94
2023/06/10 07:03:55;;;;;;;9.98;5.70;;;22.40;82.90;;;;;;6162077;23;20029;-93
2023/06/10 07:06:21;;;;;;;8.02;5.15;;;22.40;83.20;;;;;;6137955;23;20005;-93
2023/06/10 07:08:56;;;;;;;8.27;5.28;;;22.50;83.50;;;;;;6137739;23;20020;-92
2023/06/10 07:11:21;;;;;;;11.20;5.75;;;22.50;83.50;;;;;;6136457;23;20451;-93
2023/06/10 07:13:56;;;;;;;8.40;5.20;;;22.60;83.30;;;;;;6136987;23;20005;-93
2023/06/10 07:16:22;;;;;;;7.45;5.43;;;22.60;83.40;;;;;;6137178;23;20064;-92
2023/06/10 07:18:55;;;;;;;6.80;5.07;;;22.60;83.50;;;;;;6142596;23;20012;-93
2023/06/10 07:21:24;;;;;;;7.03;4.97;;;22.70;83.50;;;;;;6143143;23;20063;-91
2023/06/10 07:24:03;;;;;;;8.57;5.28;;;22.70;83.60;;;;;;6166453;23;20029;-91
2023/06/10 07:26:29;;;;;;;10.10;5.30;;;22.80;83.70;;;;;;6169544;23;20005;-93
2023/06/10 07:28:54;;;;;;;10.18;5.25;;;22.80;83.60;;;;;;6168635;23;20180;-92
2023/06/10 07:31:20;;;;;;;11.10;5.10;;;22.90;83.50;;;;;;6164257;23;20141;-92
2023/06/10 07:34:01;;;;;;;8.93;5.63;;;22.90;83.60;;;;;;6137317;23;20384;-94
2023/06/10 07:36:28;;;;;;;11.75;5.20;;;22.90;83.10;;;;;;6138096;23;20009;-93
2023/06/10 07:39:04;;;;;;;11.25;5.60;;;23.00;82.80;;;;;;6140618;23;20037;-95
2023/06/10 07:41:29;;;;;;;13.52;5.50;;;23.00;82.40;;;;;;6139189;23;20049;-91
2023/06/10 07:44:04;;;;;;;8.98;5.18;;;23.10;82.30;;;;;;6163244;23;20437;-91
2023/06/10 07:46:30;;;;;;;7.70;4.25;;;23.10;82.10;;;;;;6138051;23;20087;-92
2023/06/10 07:49:05;;;;;;;9.20;5.00;;;23.20;82.10;;;;;;6138408;23;20474;-93
2023/06/10 07:51:31;;;;;;;8.48;4.85;;;23.20;82.20;;;;;;6139355;23;20029;-93
2023/06/10 07:54:06;;;;;;;7.78;4.97;;;23.30;82.40;;;;;;6141495;23;20012;-94
2023/06/10 07:56:38;;;;;;;9.88;5.28;;;23.30;82.20;;;;;;6165679;23;19997;-94
2023/06/10 07:59:07;;;;;;;10.93;5.03;;;23.40;82.00;;;;;;6140838;23;20005;-94
2023/06/10 08:01:39;;;;;;;10.23;4.97;;;23.40;81.90;;;;;;6165216;23;20012;-94
2023/06/10 08:04:05;;;;;;;8.98;4.95;;;23.50;82.10;;;;;;6141940;23;20424;-95
2023/06/10 08:06:40;;;;;;;8.85;5.43;;;23.60;82.00;;;;;;6144882;23;20009;-93
2023/06/10 08:09:06;;;;;;;11.30;4.85;;;23.60;81.70;;;;;;6178819;23;20011;-94
2023/06/10 08:11:41;;;;;;;8.88;4.85;;;23.70;81.70;;;;;;6153902;23;20005;-93
2023/06/10 08:14:07;;;;;;;8.52;4.80;;;23.70;81.90;;;;;;6166128;23;20336;-92
2023/06/10 08:16:44;;;;;;;7.70;4.95;;;23.80;81.90;;;;;;6147325;23;20423;-95
2023/06/10 08:19:10;;;;;;;7.28;4.80;;;23.80;81.70;;;;;;6169139;23;20011;-95
2023/06/10 08:21:42;;;;;;;10.48;5.05;;;23.90;81.60;;;;;;6180051;23;20005;-95
2023/06/10 08:24:12;;;;;;;10.95;5.30;;;24.00;81.60;;;;;;6180974;23;20021;-94
2023/06/10 08:26:49;;;;;;;6.90;4.53;;;24.00;81.30;;;;;;6168950;23;20004;-96
2023/06/10 08:29:15;;;;;;;8.98;4.65;;;24.10;81.30;;;;;;6143493;23;20009;-94
2023/06/10 08:31:46;;;;;;;8.05;5.32;;;24.10;81.30;;;;;;6139394;23;20314;-93
2023/06/10 08:34:12;;;;;;;7.82;4.68;;;24.20;81.20;;;;;;6138996;23;20060;-92
2023/06/10 08:36:38;;;;;;;11.93;5.45;;;24.20;81.00;;;;;;6139045;23;20080;-93
2023/06/10 08:39:04;;;;;;;7.13;4.20;;;24.30;81.10;;;;;;6138045;23;20009;-93
2023/06/10 08:41:36;;;;;;;6.82;4.70;;;24.30;81.00;;;;;;6194208;23;20063;-93
2023/06/10 08:44:18;;;;;;;7.05;4.32;;;24.40;81.40;;;;;;6193110;23;20005;-94
2023/06/10 08:46:45;;;;;;;8.02;4.47;;;24.40;81.80;;;;;;6191760;23;20035;-90
2023/06/10 08:49:17;;;;;;;8.95;5.00;;;24.50;81.70;;;;;;6168200;23;20091;-83
2023/06/10 08:51:43;;;;;;;8.77;4.32;;;24.50;81.40;;;;;;6193730;23;20336;-89
2023/06/10 08:54:34;;;;;;;8.02;5.15;;;24.60;81.40;;;;;;6166709;23;20092;-88
2023/06/10 08:57:06;;;;;;;8.05;4.30;;;24.60;81.40;;;;;;6191614;23;20317;-89
2023/06/10 08:59:32;;;;;;;7.43;4.38;;;24.70;81.40;;;;;;6191375;23;20001;-87
2023/06/10 09:01:59;;;;;;;8.18;4.43;;;24.70;81.50;;;;;;6192219;23;20005;-87
2023/06/10 09:04:25;;;;;;;6.53;4.32;;;24.80;81.60;;;;;;6191166;23;20009;-88
2023/06/10 09:06:52;;;;;;;8.40;4.22;;;24.80;81.70;;;;;;6191487;23;20016;-89
2023/06/10 09:09:20;;;;;;;8.38;4.30;;;24.90;81.80;;;;;;6191301;23;20011;-89
2023/06/10 09:11:45;;;;;;;7.43;4.40;;;24.90;81.80;;;;;;6191451;23;20001;-89
2023/06/10 09:14:12;;;;;;;9.18;4.68;;;25.00;82.20;;;;;;6191252;23;20005;-88
2023/06/10 09:16:38;;;;;;;7.60;4.05;;;25.00;82.20;;;;;;6191111;23;20001;-90
2023/06/10 09:19:07;;;;;;;8.13;4.30;;;25.10;82.30;;;;;;6191508;23;20078;-89
2023/06/10 09:21:34;;;;;;;7.47;4.40;;;25.10;82.10;;;;;;6143589;23;20015;-92
2023/06/10 09:24:00;;;;;;;6.50;4.32;;;25.20;81.70;;;;;;6168241;23;20008;-90
2023/06/10 09:26:29;;;;;;;8.07;4.10;;;25.30;81.40;;;;;;6170527;23;20071;-96
2023/06/10 09:29:04;;;;;;;6.70;4.33;;;25.30;81.20;;;;;;6195260;23;20017;-95
2023/06/10 09:31:31;;;;;;;7.22;4.45;;;25.40;81.20;;;;;;6196715;23;19997;-96
2023/06/10 09:34:13;;;;;;;7.78;4.13;;;25.50;81.20;;;;;;6195758;23;20094;-96
2023/06/10 09:36:40;;;;;;;6.97;4.00;;;25.50;81.30;;;;;;6170474;23;20325;-96
2023/06/10 09:39:17;;;;;;;7.18;4.28;;;25.50;81.00;;;;;;6168424;23;20083;-94
2023/06/10 09:41:44;;;;;;;7.03;4.03;;;25.60;80.80;;;;;;6192938;23;20016;-95
2023/06/10 09:44:15;;;;;;;8.50;4.50;;;25.70;80.90;;;;;;6167722;23;20032;-96
2023/06/10 09:46:41;;;;;;;9.50;4.88;;;25.70;80.90;;;;;;6193118;23;20359;-93
2023/06/10 09:49:10;;;;;;;6.88;4.10;;;25.70;80.50;;;;;;6195032;23;20004;-93
2023/06/10 09:51:35;;;;;;;8.20;3.95;;;25.80;80.50;;;;;;6195782;23;20005;-96
2023/06/10 09:54:05;;;;;;;8.98;3.92;;;25.80;80.60;;;;;;6150174;23;20305;-96
2023/06/10 09:56:35;;;;;;;5.53;3.80;;;25.90;80.70;;;;;;6168129;23;20001;-93
2023/06/10 09:59:02;;;;;;;8.38;4.43;;;26.00;80.80;;;;;;6192062;23;20004;-93
2023/06/10 10:01:28;;;;;;;7.30;4.28;;;26.00;80.80;;;;;;6192443;23;20012;-93
2023/06/10 10:03:56;;;;;;;7.13;3.90;;;26.10;80.60;;;;;;6191956;23;20005;-93
2023/06/10 10:06:22;;;;;;;6.40;4.13;;;26.10;80.30;;;;;;6168709;23;20100;-93
2023/06/10 10:08:50;;;;;;;7.85;4.53;;;26.20;80.00;;;;;;6168287;23;20332;-92
2023/06/10 10:11:26;;;;;;;6.43;3.58;;;26.20;79.60;;;;;;6198499;23;19992;-93
2023/06/10 10:16:38;;;;;;;8.05;3.95;;;26.30;79.20;;;;;;6154595;23;19923;-86
2023/06/10 10:19:11;;;;;;;10.73;4.60;;;26.40;78.90;;;;;;6154746;23;20001;-86
2023/06/10 10:21:44;;;;;;;9.15;4.18;;;26.40;78.10;;;;;;6156202;23;20342;-85
2023/06/10 10:24:21;;;;;;;5.68;3.72;;;26.50;77.80;;;;;;6154546;23;20052;-85
2023/06/10 10:26:49;;;;;;;11.93;4.03;;;26.50;77.50;;;;;;6154396;23;19997;-84
2023/06/10 10:29:35;;;;;;;7.05;4.20;;;26.60;77.00;;;;;;6154432;23;20001;-83
2023/06/10 10:32:02;;;;;;;11.35;4.20;;;26.60;76.40;;;;;;6154731;23;20447;-84
2023/06/10 10:34:54;;;;;;;10.10;4.13;;;26.70;76.00;;;;;;6130721;23;20328;-83
2023/06/10 10:37:23;;;;;;;5.72;4.15;;;26.70;75.60;;;;;;6154355;23;20085;-84
2023/06/10 10:39:49;;;;;;;5.30;3.72;;;26.80;75.70;;;;;;6155678;23;20038;-84
2023/06/10 10:42:17;;;;;;;6.30;3.90;;;26.90;75.20;;;;;;6156279;23;20002;-84
2023/06/10 10:44:43;;;;;;;5.13;3.53;;;26.90;74.70;;;;;;6155852;23;20323;-86
2023/06/10 10:47:13;;;;;;;7.68;4.03;;;26.90;74.60;;;;;;6105502;23;20088;-84
2023/06/10 10:49:42;;;;;;;9.10;4.60;;;27.00;73.90;;;;;;6153850;23;20010;-85
2023/06/10 10:52:15;;;;;;;7.13;3.88;;;27.00;73.70;;;;;;6154029;23;20013;-85
2023/06/10 10:54:46;;;;;;;4.90;3.75;;;27.10;73.10;;;;;;6154423;23;20084;-85
2023/06/10 10:57:17;;;;;;;7.18;4.45;;;27.20;72.80;;;;;;6154683;23;20002;-84
2023/06/10 11:00:04;;;;;;;7.97;3.75;;;27.20;72.30;;;;;;6154211;23;20005;-84
2023/06/10 11:02:44;;;;;;;8.45;4.05;;;27.30;72.10;;;;;;6154171;23;20005;-84
2023/06/10 11:05:15;;;;;;;6.97;3.70;;;27.40;72.10;;;;;;6156009;23;20077;-85
2023/06/10 11:07:57;;;;;;;9.27;3.92;;;27.40;71.80;;;;;;6154282;23;20076;-84
2023/06/10 11:10:34;;;;;;;6.90;3.92;;;27.40;71.40;;;;;;6154212;23;20013;-85
2023/06/10 11:13:00;;;;;;;7.50;4.03;;;27.50;71.10;;;;;;6156798;23;20012;-86
2023/06/10 11:15:39;;;;;;;5.78;3.83;;;27.50;71.10;;;;;;6154317;23;20060;-93
2023/06/10 11:18:35;;;;;;;6.40;3.92;;;27.60;70.50;;;;;;6154826;23;20092;-85
2023/06/10 11:21:05;;;;;;;5.35;3.92;;;27.70;70.40;;;;;;6154578;23;20005;-86
2023/06/10 11:23:40;;;;;;;5.85;4.00;;;27.70;70.20;;;;;;6130704;23;20010;-86
2023/06/10 11:26:31;;;;;;;9.68;4.18;;;27.80;70.00;;;;;;6155884;23;20002;-84
2023/06/10 11:28:56;;;;;;;;;;;27.80;69.10;;;;;;6154594;23;20077;-85
2023/06/10 11:31:32;;;;;;;6.70;3.78;;;27.90;69.30;;;;;;6179658;23;19905;-85
2023/06/10 11:34:06;;;;;;;7.97;3.90;;;27.90;69.20;;;;;;6156323;23;20454;-85
2023/06/10 11:36:33;;;;;;;7.47;3.75;;;28.00;69.30;;;;;;6154835;23;20009;-85
2023/06/10 11:39:06;;;;;;;8.05;3.70;;;28.00;68.40;;;;;;6154607;23;20006;-85
2023/06/10 11:41:33;;;;;;;7.57;3.88;;;28.10;68.00;;;;;;6130763;23;20025;-85
2023/06/10 11:44:11;;;;;;;6.85;4.10;;;28.10;67.10;;;;;;6129957;23;20416;-85
2023/06/10 11:46:38;;;;;;;5.45;4.20;;;28.20;66.10;;;;;;6154904;23;20348;-85
2023/06/10 11:49:07;;;;;;;6.93;3.97;;;28.30;65.90;;;;;;6157786;23;20081;-85
2023/06/10 11:51:35;;;;;;;6.50;3.90;;;28.30;65.90;;;;;;6170313;23;20304;-90
2023/06/10 11:54:05;;;;;;;7.00;4.43;;;28.30;65.40;;;;;;6146140;23;20016;-91
2023/06/10 11:56:32;;;;;;;8.30;3.83;;;28.40;64.40;;;;;;6162099;23;20006;-86
2023/06/10 11:59:07;;;;;;;6.88;4.22;;;28.50;64.60;;;;;;6137028;23;20013;-86
2023/06/10 12:01:36;;;;;;;5.53;3.83;;;28.50;64.70;;;;;;6161300;23;20416;-88
2023/06/10 12:04:29;;;;;;;7.00;3.85;;;28.60;64.20;;;;;;6157007;23;20002;-87
2023/06/10 12:06:55;;;;;;;6.43;4.20;;;28.70;64.60;;;;;;6153176;23;20043;-88
2023/06/10 12:09:29;;;;;;;6.32;4.50;;;28.70;64.40;;;;;;6133881;23;20096;-87
2023/06/10 12:11:59;;;;;;;7.50;4.15;;;28.80;64.30;;;;;;6180118;23;20013;-85
2023/06/10 12:14:51;;;;;;;6.18;3.78;;;28.80;64.40;;;;;;6154988;23;20053;-85
2023/06/10 12:17:17;;;;;;;6.05;4.22;;;28.90;65.30;;;;;;6156202;23;20017;-85
2023/06/10 12:19:45;;;;;;;11.25;4.60;;;28.90;64.90;;;;;;6143862;23;20093;-90
2023/06/10 12:22:34;;;;;;;6.30;3.70;;;29.00;65.00;;;;;;6143783;23;20006;-88
2023/06/10 12:25:12;;;;;;;13.95;4.47;;;29.00;64.80;;;;;;6136175;23;20032;-88
2023/06/10 12:27:40;;;;;;;28.50;6.65;;;29.10;64.70;;;;;;6155766;23;20001;-86
2023/06/10 12:30:06;;;;;;;8.07;4.80;;;29.10;64.30;;;;;;6153729;23;20044;-85
2023/06/10 12:32:43;;;;;;;6.35;4.03;;;29.20;63.60;;;;;;6153893;23;20072;-85
2023/06/10 12:35:22;;;;;;;5.88;4.15;;;29.20;63.70;;;;;;6154815;23;20081;-86
2023/06/10 12:38:00;;;;;;;7.65;4.22;;;29.20;64.00;;;;;;6134589;23;20450;-86
2023/06/10 12:40:33;;;;;;;8.60;4.40;;;29.30;64.40;;;;;;6159089;23;20006;-86
2023/06/10 12:43:05;;;;;;;7.40;4.05;;;29.30;64.00;;;;;;6156945;23;20002;-87
2023/06/10 12:45:44;;;;;;;6.95;3.70;;;29.30;64.00;;;;;;6158303;23;20084;-86
2023/06/10 12:48:31;;;;;;;5.72;4.03;;;29.40;62.70;;;;;;6158762;23;20060;-86
2023/06/10 12:50:58;;;;;;;8.10;4.43;;;29.50;62.30;;;;;;6132438;23;20309;-85
2023/06/10 12:53:26;;;;;;;7.13;4.30;;;29.50;62.10;;;;;;6158058;23;20008;-87
2023/06/10 12:56:01;;;;;;;6.70;4.15;;;29.60;62.30;;;;;;6156442;23;20017;-87
2023/06/10 12:58:27;;;;;;;6.72;4.20;;;29.60;61.80;;;;;;6157964;23;20017;-87
2023/06/10 13:00:53;;;;;;;6.40;4.43;;;29.70;62.00;;;;;;6156203;23;20005;-87